createdAt,value
2022-11-01T00:03:07.016Z,15.41
2022-11-01T00:08:19.865Z,15.38
2022-11-01T00:13:31.887Z,15.28
2022-11-01T00:18:37.850Z,15.22
2022-11-01T00:23:43.512Z,15.13
2022-11-01T00:28:57.905Z,15.06
2022-11-01T00:34:07.549Z,14.97
2022-11-01T00:39:18.700Z,14.94
2022-11-01T00:44:25.528Z,14.89
2022-11-01T00:49:37.052Z,14.83
2022-11-01T00:54:48.559Z,14.83
2022-11-01T01:00:04.755Z,14.80
2022-11-01T01:05:11.914Z,14.75
2022-11-01T01:10:20.693Z,14.70
2022-11-01T01:15:29.537Z,14.63
2022-11-01T01:20:35.957Z,14.56
2022-11-01T01:25:49.260Z,14.52
2022-11-01T01:30:58.935Z,14.44
2022-11-01T01:36:12.117Z,14.38
2022-11-01T01:41:38.064Z,14.35
2022-11-01T01:46:48.306Z,14.30
2022-11-01T01:51:56.427Z,14.29
2022-11-01T01:57:36.951Z,14.27
2022-11-01T02:02:55.213Z,14.24
2022-11-01T02:08:13.322Z,14.21
2022-11-01T02:13:19.552Z,14.21
2022-11-01T02:18:42.529Z,14.21
2022-11-01T02:24:27.074Z,14.24
2022-11-01T02:30:19.719Z,14.26
2022-11-01T02:35:49.469Z,14.25
2022-11-01T02:41:08.440Z,14.26
2022-11-01T02:46:31.613Z,14.22
2022-11-01T02:52:00.172Z,14.19
2022-11-01T02:57:24.909Z,14.14
2022-11-01T03:02:50.365Z,14.16
2022-11-01T03:08:14.199Z,14.19
2022-11-01T03:13:45.909Z,14.17
2022-11-01T03:19:15.451Z,14.16
2022-11-01T03:24:43.502Z,14.14
2022-11-01T03:30:04.987Z,14.08
2022-11-01T03:35:15.811Z,14.05
2022-11-01T03:51:35.753Z,14.03
2022-11-01T03:56:42.114Z,14.02
2022-11-01T04:02:03.262Z,14.00
2022-11-01T04:07:10.927Z,14.00
2022-11-01T04:12:34.270Z,14.00
2022-11-01T04:17:56.866Z,13.99
2022-11-01T04:23:18.264Z,13.99
2022-11-01T04:28:30.380Z,14.01
2022-11-01T04:33:48.675Z,14.06
2022-11-01T04:39:00.904Z,14.11
2022-11-01T04:44:08.254Z,14.14
2022-11-01T04:49:15.212Z,14.14
2022-11-01T04:54:22.479Z,14.09
2022-11-01T04:59:31.661Z,14.04
2022-11-01T05:04:36.860Z,14.02
2022-11-01T05:09:48.939Z,14.08
2022-11-01T05:14:56.841Z,14.09
2022-11-01T05:20:03.201Z,14.10
2022-11-01T05:25:21.346Z,14.13
2022-11-01T05:30:55.296Z,14.14
2022-11-01T05:36:14.789Z,14.15
2022-11-01T05:41:25.984Z,14.21
2022-11-01T05:46:32.470Z,14.28
2022-11-01T05:51:58.437Z,14.35
2022-11-01T05:57:13.216Z,14.43
2022-11-01T06:02:41.635Z,14.47
2022-11-01T06:07:50.845Z,14.55
2022-11-01T06:13:13.464Z,14.60
2022-11-01T06:18:27.965Z,14.68
2022-11-01T06:23:39.201Z,14.73
2022-11-01T06:28:55.008Z,14.79
2022-11-01T06:34:17.835Z,14.87
2022-11-01T06:39:38.096Z,14.93
2022-11-01T06:45:02.037Z,14.97
2022-11-01T06:50:13.681Z,15.00
2022-11-01T06:55:34.016Z,15.05
2022-11-01T07:01:06.717Z,15.15
2022-11-01T07:06:13.536Z,15.31
2022-11-01T07:11:36.936Z,15.45
2022-11-01T07:16:44.697Z,15.61
2022-11-01T07:22:09.978Z,15.83
2022-11-01T07:27:20.547Z,16.00
2022-11-01T07:32:33.333Z,16.21
2022-11-01T07:37:48.228Z,16.39
2022-11-01T07:43:02.170Z,16.55
2022-11-01T07:48:34.197Z,16.73
2022-11-01T07:53:49.925Z,16.83
2022-11-01T07:58:59.964Z,16.95
2022-11-01T08:04:30.682Z,16.99
2022-11-01T08:09:54.072Z,17.17
2022-11-01T08:15:21.143Z,17.26
2022-11-01T08:20:28.006Z,17.29
2022-11-01T08:25:38.871Z,17.34
2022-11-01T08:30:48.119Z,17.39
2022-11-01T08:36:10.777Z,17.42
2022-11-01T08:41:44.578Z,17.43
2022-11-01T08:47:02.424Z,17.48
2022-11-01T08:52:26.836Z,17.60
2022-11-01T09:03:30.822Z,18.01
2022-11-01T09:08:40.445Z,18.20
2022-11-01T09:14:09.401Z,18.38
2022-11-01T09:19:32.535Z,18.41
2022-11-01T09:24:45.903Z,18.49
2022-11-01T09:30:10.905Z,18.62
2022-11-01T09:35:22.729Z,18.74
2022-11-01T09:40:49.195Z,18.91
2022-11-01T09:46:02.421Z,18.99
2022-11-01T09:51:21.402Z,19.04
2022-11-01T09:56:39.970Z,18.98
2022-11-01T10:02:09.895Z,18.97
2022-11-01T10:07:32.950Z,18.97
2022-11-01T10:12:57.198Z,19.02
2022-11-01T10:18:28.118Z,19.15
2022-11-01T10:23:41.078Z,19.20
2022-11-01T10:28:51.758Z,19.29
2022-11-01T10:34:01.322Z,19.42
2022-11-01T10:44:42.542Z,19.65
2022-11-01T10:50:05.315Z,19.74
2022-11-01T10:55:15.511Z,19.76
2022-11-01T11:00:21.535Z,19.80
2022-11-01T11:05:29.192Z,19.85
2022-11-01T11:10:32.364Z,19.93
2022-11-01T11:15:41.771Z,19.98
2022-11-01T11:20:52.485Z,20.04
2022-11-01T11:26:02.398Z,20.03
2022-11-01T11:31:18.645Z,20.05
2022-11-01T11:36:30.463Z,20.11
2022-11-01T11:41:36.315Z,20.16
2022-11-01T11:46:57.111Z,20.20
2022-11-01T11:52:01.517Z,20.22
2022-11-01T11:57:12.715Z,20.31
2022-11-01T12:02:21.593Z,20.27
2022-11-01T12:07:38.268Z,20.32
2022-11-01T12:12:42.669Z,20.24
2022-11-01T12:17:47.514Z,20.31
2022-11-01T12:22:59.089Z,20.31
2022-11-01T12:28:04.787Z,20.33
2022-11-01T12:33:21.522Z,20.33
2022-11-01T12:38:42.849Z,20.33
2022-11-01T12:43:57.232Z,20.29
2022-11-01T12:49:06.317Z,20.28
2022-11-01T12:54:16.273Z,20.32
2022-11-01T12:59:29.945Z,20.34
2022-11-01T13:04:37.322Z,20.33
2022-11-01T13:09:51.313Z,20.27
2022-11-01T13:15:04.502Z,20.28
2022-11-01T13:20:22.763Z,20.28
2022-11-01T13:25:37.447Z,20.26
2022-11-01T13:30:47.966Z,20.28
2022-11-01T13:35:59.146Z,20.20
2022-11-01T13:41:19.660Z,20.17
2022-11-01T13:46:34.925Z,20.12
2022-11-01T13:51:43.076Z,20.01
2022-11-01T13:56:54.910Z,20.02
2022-11-01T14:02:14.630Z,19.95
2022-11-01T14:07:18.048Z,19.88
2022-11-01T14:12:37.604Z,19.88
2022-11-01T14:18:04.424Z,19.88
2022-11-01T14:23:52.713Z,19.83
2022-11-01T14:28:59.772Z,19.74
2022-11-01T14:34:07.261Z,19.67
2022-11-01T14:39:20.476Z,19.69
2022-11-01T14:44:32.374Z,19.62
2022-11-01T14:49:42.438Z,19.55
2022-11-01T14:54:51.509Z,19.49
2022-11-01T14:59:57.217Z,19.42
2022-11-01T15:05:02.009Z,19.34
2022-11-01T15:10:07.719Z,19.20
2022-11-01T15:15:16.100Z,19.10
2022-11-01T15:20:20.880Z,18.97
2022-11-01T15:25:26.670Z,18.83
2022-11-01T15:30:33.612Z,18.72
2022-11-01T15:35:36.947Z,18.61
2022-11-01T15:40:40.875Z,18.49
2022-11-01T15:45:46.206Z,18.38
2022-11-01T15:50:53.080Z,18.27
2022-11-01T15:56:02.272Z,18.15
2022-11-01T16:01:14.367Z,18.06
2022-11-01T16:06:23.009Z,17.95
2022-11-01T16:11:29.458Z,17.83
2022-11-01T16:16:58.683Z,17.74
2022-11-01T16:22:01.636Z,17.56
2022-11-01T16:27:04.707Z,17.44
2022-11-01T16:32:17.886Z,17.27
2022-11-01T16:37:22.742Z,17.11
2022-11-01T16:42:26.563Z,17.06
2022-11-01T16:47:31.158Z,16.99
2022-11-01T16:52:35.765Z,16.90
2022-11-01T16:57:39.731Z,16.82
2022-11-01T17:02:44.253Z,16.68
2022-11-01T17:07:47.921Z,16.54
2022-11-01T17:12:51.036Z,16.40
2022-11-01T17:17:56.125Z,16.29
2022-11-01T17:22:59.813Z,16.16
2022-11-01T17:28:03.365Z,16.09
2022-11-01T17:33:08.132Z,16.02
2022-11-01T17:38:15.615Z,15.98
2022-11-01T17:43:20.014Z,15.89
2022-11-01T17:48:24.424Z,15.79
2022-11-01T17:53:27.365Z,15.71
2022-11-01T17:58:30.323Z,15.66
2022-11-01T18:03:34.648Z,15.61
2022-11-01T18:08:44.876Z,15.57
2022-11-01T18:14:03.576Z,15.53
2022-11-01T18:19:20.584Z,15.47
2022-11-01T18:24:31.778Z,15.41
2022-11-01T18:29:40.054Z,15.36
2022-11-01T18:34:49.274Z,15.29
2022-11-01T18:39:59.212Z,15.20
2022-11-01T18:45:16.361Z,15.10
2022-11-01T18:50:26.149Z,14.99
2022-11-01T18:55:33.165Z,14.88
2022-11-01T19:00:36.380Z,14.82
2022-11-01T19:05:41.267Z,14.74
2022-11-01T19:10:44.300Z,14.71
2022-11-01T19:15:53.106Z,14.63
2022-11-01T19:21:00.372Z,14.56
2022-11-01T19:26:04.078Z,14.48
2022-11-01T19:31:15.718Z,14.44
2022-11-01T19:36:22.210Z,14.37
2022-11-01T19:41:31.137Z,14.32
2022-11-01T19:46:39.409Z,14.24
2022-11-01T19:51:46.245Z,14.17
2022-11-01T19:56:50.246Z,14.09
2022-11-01T20:02:09.911Z,14.04
2022-11-01T20:07:26.957Z,13.95
2022-11-01T20:12:30.217Z,13.89
2022-11-01T20:17:33.775Z,13.82
2022-11-01T20:22:38.363Z,13.78
2022-11-01T20:27:41.328Z,13.74
2022-11-01T20:32:44.590Z,13.69
2022-11-01T20:37:48.979Z,13.64
2022-11-01T20:42:52.406Z,13.62
2022-11-01T20:47:55.364Z,13.58
2022-11-01T20:52:59.818Z,13.56
2022-11-01T20:58:03.888Z,13.52
2022-11-01T21:03:14.483Z,13.50
2022-11-01T21:08:23.025Z,13.46
2022-11-01T21:13:30.367Z,13.43
2022-11-01T21:18:43.704Z,13.38
2022-11-01T21:23:48.504Z,13.31
2022-11-01T21:28:53.886Z,13.25
2022-11-01T21:33:58.438Z,13.20
2022-11-01T21:39:04.591Z,13.16
2022-11-01T21:44:21.830Z,13.12
2022-11-01T21:49:30.655Z,13.05
2022-11-01T21:54:36.857Z,12.99
2022-11-01T21:59:40.150Z,12.95
2022-11-01T22:04:44.098Z,12.91
2022-11-01T22:09:48.632Z,12.87
2022-11-01T22:14:51.658Z,12.79
2022-11-01T22:19:54.675Z,12.74
2022-11-01T22:24:59.331Z,12.73
2022-11-01T22:30:02.507Z,12.72
2022-11-01T22:35:06.157Z,12.72
2022-11-01T22:40:15.113Z,12.70
2022-11-01T22:45:19.592Z,12.68
2022-11-01T22:50:28.985Z,12.67
2022-11-01T22:55:43.997Z,12.62
2022-11-01T23:00:47.660Z,12.58
2022-11-01T23:05:52.414Z,12.54
2022-11-01T23:10:57.893Z,12.46
2022-11-01T23:16:02.652Z,12.41
2022-11-01T23:21:08.214Z,12.36
2022-11-01T23:26:14.377Z,12.30
2022-11-01T23:31:17.959Z,12.25
2022-11-01T23:36:24.082Z,12.18
2022-11-01T23:41:33.632Z,12.14
2022-11-01T23:46:36.881Z,12.08
2022-11-01T23:51:40.069Z,12.03
2022-11-01T23:56:44.892Z,12.00
